createdAt,value
2018-06-17T00:00:42.010Z,3.83
2018-06-17T00:03:10.589Z,3.60
2018-06-17T00:05:39.329Z,3.23
2018-06-17T00:08:07.945Z,3.30
2018-06-17T00:10:36.513Z,3.63
2018-06-17T00:13:05.302Z,3.33
2018-06-17T00:15:34.459Z,3.13
2018-06-17T00:18:02.697Z,3.27
2018-06-17T00:20:32.302Z,3.27
2018-06-17T00:23:01.493Z,4.10
2018-06-17T00:25:30.042Z,3.27
2018-06-17T00:27:58.690Z,3.20
2018-06-17T00:30:27.260Z,3.13
2018-06-17T00:32:55.845Z,3.60
2018-06-17T00:35:24.953Z,3.00
2018-06-17T00:37:54.230Z,3.43
2018-06-17T00:40:22.790Z,3.97
2018-06-17T00:42:51.398Z,3.47
2018-06-17T00:45:20.046Z,3.70
2018-06-17T00:47:48.276Z,3.50
2018-06-17T00:50:16.836Z,3.97
2018-06-17T00:52:46.157Z,3.60
2018-06-17T00:55:15.338Z,3.10
2018-06-17T00:57:49.605Z,3.67
2018-06-17T01:00:18.978Z,3.10
2018-06-17T01:02:48.889Z,2.90
2018-06-17T01:05:18.709Z,3.40
2018-06-17T01:07:47.322Z,3.83
2018-06-17T01:10:15.570Z,2.83
2018-06-17T01:12:44.634Z,3.03
2018-06-17T01:15:13.179Z,2.73
2018-06-17T01:17:41.409Z,3.37
2018-06-17T01:20:10.187Z,3.40
2018-06-17T01:22:39.126Z,3.30
2018-06-17T01:25:08.462Z,3.53
2018-06-17T01:27:36.679Z,3.43
2018-06-17T01:30:05.689Z,3.00
2018-06-17T01:32:34.283Z,3.23
2018-06-17T01:35:02.869Z,3.20
2018-06-17T01:37:31.501Z,2.97
2018-06-17T01:40:00.083Z,3.30
2018-06-17T01:42:28.711Z,3.67
2018-06-17T01:44:57.303Z,4.27
2018-06-17T01:47:25.938Z,3.43
2018-06-17T01:49:54.741Z,2.90
2018-06-17T01:52:23.328Z,3.20
2018-06-17T01:54:51.929Z,2.73
2018-06-17T01:57:20.476Z,3.60
2018-06-17T01:59:49.052Z,3.50
2018-06-17T02:02:17.639Z,3.63
2018-06-17T02:04:51.416Z,3.90
2018-06-17T02:07:25.207Z,3.77
2018-06-17T02:09:59.141Z,3.40
2018-06-17T02:12:27.338Z,3.10
2018-06-17T02:14:59.658Z,4.20
2018-06-17T02:17:28.729Z,4.00
2018-06-17T02:19:57.457Z,3.67
2018-06-17T02:22:26.002Z,4.10
2018-06-17T02:24:54.581Z,3.60
2018-06-17T02:27:23.913Z,4.30
2018-06-17T02:29:52.483Z,4.30
2018-06-17T02:32:21.079Z,4.33
2018-06-17T02:34:49.674Z,4.50
2018-06-17T02:37:18.256Z,4.10
2018-06-17T02:39:47.314Z,3.93
2018-06-17T02:42:16.369Z,3.60
2018-06-17T02:44:44.997Z,3.67
2018-06-17T02:47:19.342Z,3.60
2018-06-17T02:49:48.947Z,3.70
2018-06-17T02:53:20.698Z,4.00
2018-06-17T02:55:49.309Z,3.40
2018-06-17T02:58:17.816Z,3.27
2018-06-17T03:00:46.069Z,3.70
2018-06-17T03:03:15.254Z,3.17
2018-06-17T03:05:43.874Z,3.30
2018-06-17T03:08:13.003Z,3.00
2018-06-17T03:10:42.155Z,3.30
2018-06-17T03:13:11.372Z,3.87
2018-06-17T03:15:39.682Z,3.93
2018-06-17T03:18:08.258Z,3.33
2018-06-17T03:20:36.834Z,3.20
2018-06-17T03:23:05.198Z,3.43
2018-06-17T03:25:39.082Z,3.63
2018-06-17T03:28:13.102Z,3.30
2018-06-17T03:30:46.842Z,3.10
2018-06-17T03:33:20.577Z,3.40
2018-06-17T03:35:54.401Z,3.53
2018-06-17T03:38:23.641Z,4.50
2018-06-17T03:40:51.877Z,3.83
2018-06-17T03:43:20.468Z,3.20
2018-06-17T03:45:49.071Z,3.60
2018-06-17T03:48:18.241Z,3.67
2018-06-17T03:50:46.843Z,3.70
2018-06-17T03:53:15.717Z,4.03
2018-06-17T03:55:44.314Z,4.70
2018-06-17T03:58:13.762Z,4.03
2018-06-17T04:00:42.793Z,2.90
2018-06-17T04:03:11.345Z,2.77
2018-06-17T04:05:39.913Z,3.57
2018-06-17T04:08:09.109Z,3.03
2018-06-17T04:10:38.766Z,3.10
2018-06-17T04:13:07.558Z,3.33
2018-06-17T04:15:36.478Z,3.90
2018-06-17T04:18:06.086Z,3.27
2018-06-17T04:20:34.725Z,3.20
2018-06-17T04:23:03.478Z,3.20
2018-06-17T04:25:32.852Z,3.17
2018-06-17T04:28:01.909Z,3.10
2018-06-17T04:30:30.500Z,3.30
2018-06-17T04:32:59.082Z,3.30
2018-06-17T04:35:27.707Z,3.53
2018-06-17T04:37:56.295Z,3.10
2018-06-17T04:40:24.894Z,3.27
2018-06-17T04:42:54.607Z,3.43
2018-06-17T04:45:23.807Z,3.03
2018-06-17T04:47:53.170Z,3.13
2018-06-17T04:50:22.384Z,3.60
2018-06-17T04:52:51.550Z,3.87
2018-06-17T04:55:20.168Z,3.60
2018-06-17T04:57:49.080Z,3.13
2018-06-17T05:00:17.694Z,3.40
2018-06-17T05:02:46.245Z,3.37
2018-06-17T05:05:15.914Z,4.07
2018-06-17T05:07:44.509Z,3.50
2018-06-17T05:10:13.803Z,3.97
2018-06-17T05:12:42.404Z,4.23
2018-06-17T05:15:10.981Z,5.33
2018-06-17T05:17:39.588Z,5.27
2018-06-17T05:20:08.185Z,4.63
2018-06-17T05:22:36.830Z,4.50
2018-06-17T05:25:05.424Z,3.73
2018-06-17T05:27:34.015Z,3.83
2018-06-17T05:30:02.591Z,3.57
2018-06-17T05:32:31.195Z,3.50
2018-06-17T05:34:59.767Z,3.70
2018-06-17T05:37:28.365Z,3.10
2018-06-17T05:39:58.005Z,3.27
2018-06-17T05:42:26.301Z,3.13
2018-06-17T05:44:54.832Z,3.50
2018-06-17T05:47:24.034Z,2.93
2018-06-17T05:49:53.206Z,3.00
2018-06-17T05:52:21.784Z,3.20
2018-06-17T05:54:50.341Z,3.13
2018-06-17T05:57:18.910Z,3.23
2018-06-17T05:59:47.135Z,3.23
2018-06-17T06:02:16.666Z,2.90
2018-06-17T06:04:45.731Z,2.80
2018-06-17T06:07:14.324Z,3.50
2018-06-17T06:09:42.882Z,3.03
2018-06-17T06:12:12.080Z,3.23
2018-06-17T06:14:40.579Z,3.37
2018-06-17T06:17:09.733Z,2.90
2018-06-17T06:19:38.384Z,3.20
2018-06-17T06:22:07.052Z,3.30
2018-06-17T06:24:35.590Z,3.60
2018-06-17T06:27:03.837Z,2.90
2018-06-17T06:29:32.617Z,2.50
2018-06-17T06:32:01.194Z,2.90
2018-06-17T06:34:29.759Z,3.27
2018-06-17T06:36:58.348Z,2.83
2018-06-17T06:39:27.548Z,3.13
2018-06-17T06:41:56.244Z,3.10
2018-06-17T06:44:24.800Z,2.60
2018-06-17T06:46:53.414Z,3.00
2018-06-17T06:49:21.965Z,2.90
2018-06-17T06:51:50.642Z,3.47
2018-06-17T06:54:18.875Z,2.60
2018-06-17T06:56:47.489Z,2.73
2018-06-17T06:59:15.710Z,2.50
2018-06-17T07:01:55.589Z,2.60
2018-06-17T07:04:35.620Z,2.40
2018-06-17T07:07:15.414Z,2.20
2018-06-17T07:09:55.229Z,2.43
2018-06-17T07:12:23.876Z,2.23
2018-06-17T07:14:52.458Z,3.03
2018-06-17T07:17:32.398Z,2.53
2018-06-17T07:20:00.605Z,2.50
2018-06-17T07:22:29.173Z,2.47
2018-06-17T07:24:57.800Z,2.17
2018-06-17T07:27:37.478Z,2.27
2018-06-17T07:30:06.036Z,2.43
2018-06-17T07:32:35.223Z,2.33
2018-06-17T07:35:03.918Z,2.37
2018-06-17T07:37:32.687Z,2.03
2018-06-17T07:41:04.746Z,2.40
2018-06-17T07:43:34.094Z,2.03
2018-06-17T07:46:02.662Z,2.10
2018-06-17T07:49:47.657Z,2.43
2018-06-17T07:52:28.756Z,1.53
2018-06-17T07:54:57.345Z,1.57
2018-06-17T07:57:28.524Z,1.90
2018-06-17T07:59:57.336Z,1.80
2018-06-17T08:02:25.968Z,1.40
2018-06-17T08:04:54.630Z,2.23
2018-06-17T08:07:23.954Z,1.50
2018-06-17T08:09:52.192Z,1.97
2018-06-17T08:12:20.761Z,1.60
2018-06-17T08:14:50.061Z,1.87
2018-06-17T08:17:19.299Z,1.77
2018-06-17T08:19:48.013Z,1.73
2018-06-17T08:22:16.564Z,1.43
2018-06-17T08:24:45.162Z,1.70
2018-06-17T08:27:14.717Z,1.83
2018-06-17T08:29:43.310Z,1.73
2018-06-17T08:32:12.452Z,1.63
2018-06-17T08:34:40.716Z,1.00
2018-06-17T08:37:10.496Z,1.53
2018-06-17T08:39:39.109Z,1.27
2018-06-17T08:42:08.077Z,1.80
2018-06-17T08:44:36.652Z,1.93
2018-06-17T08:47:06.296Z,1.70
2018-06-17T08:49:34.878Z,1.37
2018-06-17T08:52:03.710Z,1.60
2018-06-17T08:54:32.369Z,1.83
2018-06-17T08:57:00.964Z,1.77
2018-06-17T08:59:30.881Z,1.43
2018-06-17T09:01:59.109Z,1.30
2018-06-17T09:04:27.701Z,1.50
2018-06-17T09:06:56.294Z,1.80
2018-06-17T09:09:24.892Z,1.47
2018-06-17T09:11:53.457Z,1.67
2018-06-17T09:14:22.652Z,1.40
2018-06-17T09:16:51.207Z,1.40
2018-06-17T09:19:19.819Z,1.70
2018-06-17T09:21:48.417Z,1.10
2018-06-17T09:24:17.077Z,1.43
2018-06-17T09:26:45.644Z,1.60
2018-06-17T09:29:14.552Z,1.57
2018-06-17T09:31:43.200Z,1.70
2018-06-17T09:34:11.789Z,1.70
2018-06-17T09:36:40.677Z,1.60
2018-06-17T09:39:09.674Z,1.40
2018-06-17T09:41:37.918Z,1.80
2018-06-17T09:44:07.150Z,1.50
2018-06-17T09:46:35.718Z,1.40
2018-06-17T09:49:05.203Z,1.70
2018-06-17T09:51:34.366Z,1.67
2018-06-17T09:54:02.993Z,1.63
2018-06-17T09:56:32.109Z,1.53
2018-06-17T09:59:00.719Z,1.43
2018-06-17T10:01:30.013Z,1.97
2018-06-17T10:03:58.566Z,1.40
2018-06-17T10:06:28.356Z,1.80
2018-06-17T10:08:57.950Z,1.63
2018-06-17T10:11:26.512Z,1.50
2018-06-17T10:13:55.085Z,1.57
2018-06-17T10:16:23.719Z,2.10
2018-06-17T10:18:52.297Z,2.43
2018-06-17T10:21:20.906Z,1.90
2018-06-17T10:23:49.469Z,1.77
2018-06-17T10:26:18.068Z,2.17
2018-06-17T10:28:46.637Z,1.30
2018-06-17T10:31:15.244Z,1.70
2018-06-17T10:33:43.821Z,1.63
2018-06-17T10:36:12.409Z,1.73
2018-06-17T10:38:40.972Z,1.90
2018-06-17T10:41:09.558Z,1.93
2018-06-17T10:43:38.152Z,1.67
2018-06-17T10:46:06.741Z,1.80
2018-06-17T10:48:35.513Z,1.57
2018-06-17T10:51:04.089Z,2.50
2018-06-17T10:53:32.630Z,1.50
2018-06-17T10:56:00.987Z,1.93
2018-06-17T10:58:29.745Z,2.10
2018-06-17T11:00:58.351Z,2.00
2018-06-17T11:03:27.493Z,1.70
2018-06-17T11:05:55.730Z,1.73
2018-06-17T11:08:25.168Z,1.90
2018-06-17T11:10:53.739Z,2.23
2018-06-17T11:13:22.047Z,1.90
2018-06-17T11:15:50.613Z,2.27
2018-06-17T11:18:18.849Z,1.60
2018-06-17T11:20:47.425Z,2.10
2018-06-17T11:23:15.985Z,2.00
2018-06-17T11:25:44.591Z,2.00
2018-06-17T11:28:13.152Z,2.00
2018-06-17T11:30:42.087Z,1.97
2018-06-17T11:33:10.627Z,2.37
2018-06-17T11:35:39.213Z,2.40
2018-06-17T11:38:07.794Z,2.10
2018-06-17T11:40:36.362Z,2.33
2018-06-17T11:43:05.575Z,2.17
2018-06-17T11:45:34.159Z,2.47
2018-06-17T11:48:02.867Z,2.40
2018-06-17T11:50:31.429Z,2.20
2018-06-17T11:53:00.036Z,2.40
2018-06-17T11:55:29.590Z,2.10
2018-06-17T11:57:58.156Z,2.97
2018-06-17T12:00:26.729Z,2.37
2018-06-17T12:02:55.289Z,2.20
2018-06-17T12:05:23.853Z,2.23
2018-06-17T12:07:52.439Z,2.47
2018-06-17T12:10:20.989Z,2.13
2018-06-17T12:12:49.596Z,2.27
2018-06-17T12:15:18.158Z,2.73
2018-06-17T12:17:46.805Z,2.37
2018-06-17T12:20:15.381Z,2.50
2018-06-17T12:22:43.957Z,2.40
2018-06-17T12:25:12.525Z,2.30
2018-06-17T12:27:41.126Z,2.40
2018-06-17T12:30:09.677Z,2.23
2018-06-17T12:32:38.255Z,2.03
2018-06-17T12:35:06.623Z,2.20
2018-06-17T12:37:35.741Z,2.30
2018-06-17T12:40:03.993Z,2.63
2018-06-17T12:42:32.566Z,1.97
2018-06-17T12:45:01.144Z,2.20
2018-06-17T12:47:29.748Z,2.07
2018-06-17T12:49:58.334Z,1.93
2018-06-17T12:52:26.936Z,2.30
2018-06-17T12:54:55.152Z,2.47
2018-06-17T12:57:24.578Z,1.80
2018-06-17T12:59:53.133Z,1.63
2018-06-17T13:02:21.747Z,2.00
2018-06-17T13:04:50.382Z,1.70
2018-06-17T13:07:19.090Z,2.10
2018-06-17T13:09:47.652Z,1.40
2018-06-17T13:12:16.228Z,1.60
2018-06-17T13:14:44.522Z,2.00
2018-06-17T13:17:13.091Z,1.70
2018-06-17T13:19:41.694Z,1.60
2018-06-17T13:22:10.255Z,2.10
2018-06-17T13:24:38.490Z,1.83
2018-06-17T13:27:07.042Z,2.10
2018-06-17T13:29:36.334Z,1.70
2018-06-17T13:32:06.355Z,2.00
2018-06-17T13:34:35.614Z,1.80
2018-06-17T13:37:04.233Z,1.97
2018-06-17T13:39:32.869Z,1.73
2018-06-17T13:42:01.999Z,1.83
2018-06-17T13:44:30.384Z,2.00
2018-06-17T13:46:58.617Z,2.07
2018-06-17T13:49:27.206Z,2.00
2018-06-17T13:51:56.489Z,1.90
2018-06-17T13:54:25.117Z,2.00
2018-06-17T13:56:53.670Z,3.43
2018-06-17T13:59:22.267Z,2.27
2018-06-17T14:01:52.098Z,2.10
2018-06-17T14:04:20.670Z,1.87
2018-06-17T14:06:50.146Z,2.00
2018-06-17T14:09:18.778Z,1.77
2018-06-17T14:11:47.358Z,1.57
2018-06-17T14:14:16.669Z,1.80
2018-06-17T14:16:45.565Z,1.70
2018-06-17T14:19:14.846Z,1.70
2018-06-17T14:21:44.425Z,1.53
2018-06-17T14:24:13.105Z,2.50
2018-06-17T14:26:41.678Z,2.33
2018-06-17T14:29:10.278Z,1.80
2018-06-17T14:31:38.869Z,2.07
2018-06-17T14:34:07.477Z,2.20
2018-06-17T14:36:43.231Z,2.10
2018-06-17T14:39:12.942Z,1.97
2018-06-17T14:41:41.487Z,2.00
2018-06-17T14:44:16.097Z,1.90
2018-06-17T14:46:50.590Z,1.77
2018-06-17T14:49:24.172Z,2.07
2018-06-17T14:51:58.793Z,1.50
2018-06-17T14:54:27.356Z,1.73
2018-06-17T14:56:55.918Z,1.90
2018-06-17T14:59:24.534Z,1.60
2018-06-17T15:01:53.082Z,1.63
2018-06-17T15:04:21.640Z,1.83
2018-06-17T15:06:49.852Z,1.70
2018-06-17T15:09:18.574Z,1.90
2018-06-17T15:11:47.346Z,2.20
2018-06-17T15:14:15.901Z,1.83
2018-06-17T15:16:44.526Z,1.63
2018-06-17T15:19:13.080Z,1.87
2018-06-17T15:21:41.657Z,1.97
2018-06-17T15:24:10.194Z,1.93
2018-06-17T15:26:38.799Z,2.20
2018-06-17T15:29:07.014Z,2.30
2018-06-17T15:31:41.073Z,2.00
2018-06-17T15:34:15.493Z,2.17
2018-06-17T15:36:49.300Z,2.10
2018-06-17T15:39:23.141Z,2.30
2018-06-17T15:41:51.767Z,1.90
2018-06-17T15:44:20.328Z,2.10
2018-06-17T15:46:48.937Z,1.80
2018-06-17T15:49:18.458Z,2.27
2018-06-17T15:51:47.532Z,1.93
2018-06-17T15:54:16.069Z,2.00
2018-06-17T15:56:44.657Z,1.90
2018-06-17T15:59:13.203Z,2.03
2018-06-17T16:01:42.380Z,1.90
2018-06-17T16:04:10.959Z,1.90
2018-06-17T16:06:39.530Z,1.80
2018-06-17T16:09:10.917Z,2.13
2018-06-17T16:11:44.877Z,2.33
2018-06-17T16:14:18.644Z,1.80
2018-06-17T16:16:52.781Z,2.03
2018-06-17T16:19:26.324Z,1.70
2018-06-17T16:21:55.286Z,2.03
2018-06-17T16:24:23.705Z,1.93
2018-06-17T16:26:52.305Z,1.50
2018-06-17T16:29:21.202Z,1.90
2018-06-17T16:31:49.825Z,1.90
2018-06-17T16:34:18.061Z,1.70
2018-06-17T16:36:46.642Z,1.60
2018-06-17T16:39:15.217Z,1.90
2018-06-17T16:41:44.422Z,1.93
2018-06-17T16:44:13.589Z,1.73
2018-06-17T16:46:42.417Z,1.90
2018-06-17T16:49:10.990Z,1.83
2018-06-17T16:51:44.825Z,1.50
2018-06-17T16:54:18.718Z,1.90
2018-06-17T16:56:52.766Z,13.63
2018-06-17T16:59:26.573Z,1.83
2018-06-17T17:01:54.860Z,1.50
2018-06-17T17:04:23.175Z,1.73
2018-06-17T17:06:51.764Z,1.80
2018-06-17T17:09:20.323Z,1.37
2018-06-17T17:11:49.234Z,1.73
2018-06-17T17:14:17.822Z,1.90
2018-06-17T17:16:46.401Z,1.80
2018-06-17T17:19:15.025Z,2.00
2018-06-17T17:21:43.566Z,1.63
2018-06-17T17:24:12.150Z,1.60
2018-06-17T17:26:40.734Z,1.73
2018-06-17T17:29:09.402Z,2.23
2018-06-17T17:31:43.470Z,1.53
2018-06-17T17:34:17.802Z,1.50
2018-06-17T17:36:51.665Z,1.43
2018-06-17T17:39:25.512Z,1.97
2018-06-17T17:41:54.057Z,2.40
2018-06-17T17:44:22.698Z,1.60
2018-06-17T17:46:56.551Z,1.90
2018-06-17T17:49:25.121Z,1.70
2018-06-17T17:51:53.687Z,1.63
2018-06-17T17:54:22.069Z,1.40
2018-06-17T17:56:50.607Z,1.70
2018-06-17T17:59:19.229Z,1.47
2018-06-17T18:01:47.817Z,1.77
2018-06-17T18:04:16.061Z,1.60
2018-06-17T18:06:45.317Z,1.40
2018-06-17T18:09:13.895Z,1.90
2018-06-17T18:11:43.050Z,1.40
2018-06-17T18:14:11.666Z,1.50
2018-06-17T18:16:40.264Z,1.97
2018-06-17T18:19:08.848Z,1.50
2018-06-17T18:21:37.989Z,1.53
2018-06-17T18:24:06.605Z,1.63
2018-06-17T18:26:40.109Z,1.73
2018-06-17T18:29:13.748Z,1.60
2018-06-17T18:31:47.583Z,2.00
2018-06-17T18:34:22.483Z,1.63
2018-06-17T18:36:51.643Z,1.60
2018-06-17T18:39:20.685Z,2.27
2018-06-17T18:41:49.270Z,1.67
2018-06-17T18:44:18.684Z,1.50
2018-06-17T18:46:47.309Z,1.30
2018-06-17T18:49:16.818Z,1.40
2018-06-17T18:51:46.273Z,1.77
2018-06-17T18:54:15.455Z,1.30
2018-06-17T18:56:44.615Z,1.93
2018-06-17T18:59:12.856Z,1.70
2018-06-17T19:01:42.042Z,2.00
2018-06-17T19:04:10.626Z,1.70
2018-06-17T19:06:39.314Z,1.60
2018-06-17T19:09:13.675Z,1.63
2018-06-17T19:11:47.946Z,1.80
2018-06-17T19:14:21.866Z,1.70
2018-06-17T19:16:56.445Z,1.40
2018-06-17T19:19:25.637Z,1.43
2018-06-17T19:21:56.020Z,1.53
2018-06-17T19:24:24.569Z,1.77
2018-06-17T19:26:53.179Z,1.67
2018-06-17T19:29:21.720Z,1.50
2018-06-17T19:31:50.342Z,1.33
2018-06-17T19:34:18.950Z,1.43
2018-06-17T19:36:47.533Z,1.80
2018-06-17T19:39:16.569Z,1.70
2018-06-17T19:41:45.095Z,1.37
2018-06-17T19:44:13.637Z,2.00
2018-06-17T19:46:42.209Z,1.40
2018-06-17T19:49:11.701Z,1.70
2018-06-17T19:51:45.851Z,2.07
2018-06-17T19:54:19.785Z,2.40
2018-06-17T19:56:53.685Z,1.97
2018-06-17T19:59:27.525Z,2.27
2018-06-17T20:01:56.403Z,2.53
2018-06-17T20:04:24.958Z,2.10
2018-06-17T20:06:53.912Z,2.20
2018-06-17T20:09:22.455Z,1.70
2018-06-17T20:11:51.025Z,1.73
2018-06-17T20:14:19.611Z,1.43
2018-06-17T20:16:48.208Z,2.00
2018-06-17T20:19:17.338Z,1.40
2018-06-17T20:21:46.488Z,1.57
2018-06-17T20:24:15.071Z,1.77
2018-06-17T20:26:43.585Z,1.77
2018-06-17T20:29:12.993Z,1.63
2018-06-17T20:31:47.337Z,1.80
2018-06-17T20:34:21.262Z,1.87
2018-06-17T20:36:54.980Z,1.67
2018-06-17T20:39:29.117Z,1.40
2018-06-17T20:42:02.958Z,1.40
2018-06-17T20:44:32.129Z,1.23
2018-06-17T20:47:00.704Z,1.80
2018-06-17T20:49:29.278Z,1.50
2018-06-17T20:51:57.869Z,1.33
2018-06-17T20:54:26.471Z,1.83
2018-06-17T20:56:55.087Z,1.53
2018-06-17T20:59:23.717Z,2.00
2018-06-17T21:01:52.294Z,1.50
2018-06-17T21:04:21.051Z,1.70
2018-06-17T21:06:49.637Z,1.67
2018-06-17T21:09:19.011Z,2.20
2018-06-17T21:11:48.542Z,1.80
2018-06-17T21:14:17.632Z,2.00
2018-06-17T21:16:46.370Z,1.60
2018-06-17T21:19:21.077Z,1.80
2018-06-17T21:21:55.040Z,1.60
2018-06-17T21:24:29.024Z,1.43
2018-06-17T21:28:05.786Z,2.10
2018-06-17T21:30:34.333Z,1.80
2018-06-17T21:33:02.934Z,2.03
2018-06-17T21:35:31.502Z,2.27
2018-06-17T21:38:00.121Z,2.77
2018-06-17T21:40:28.713Z,1.70
2018-06-17T21:42:56.941Z,1.70
2018-06-17T21:45:25.534Z,1.77
2018-06-17T21:47:54.102Z,2.10
2018-06-17T21:50:23.201Z,2.17
2018-06-17T21:52:51.884Z,2.00
2018-06-17T21:55:20.490Z,2.43
2018-06-17T21:57:49.617Z,2.80
2018-06-17T22:00:17.860Z,2.67
2018-06-17T22:02:46.437Z,2.30
2018-06-17T22:05:15.098Z,2.83
2018-06-17T22:07:48.954Z,2.43
2018-06-17T22:10:22.885Z,2.60
2018-06-17T22:12:56.485Z,2.47
2018-06-17T22:15:30.149Z,2.30
2018-06-17T22:17:58.769Z,2.27
2018-06-17T22:20:27.443Z,2.20
2018-06-17T22:22:56.039Z,2.20
2018-06-17T22:25:24.621Z,2.50
2018-06-17T22:27:53.194Z,2.53
2018-06-17T22:30:21.806Z,2.37
2018-06-17T22:32:50.029Z,1.97
2018-06-17T22:35:19.581Z,2.30
2018-06-17T22:37:48.636Z,1.73
2018-06-17T22:40:17.298Z,2.10
2018-06-17T22:42:45.874Z,2.30
2018-06-17T22:45:14.469Z,2.10
2018-06-17T22:47:49.008Z,2.00
2018-06-17T22:50:17.575Z,2.20
2018-06-17T22:52:57.438Z,2.33
2018-06-17T22:55:26.010Z,1.90
2018-06-17T22:57:59.956Z,2.23
2018-06-17T23:00:33.977Z,2.20
2018-06-17T23:03:07.678Z,2.17
2018-06-17T23:05:41.690Z,2.13
2018-06-17T23:08:15.581Z,2.60
2018-06-17T23:10:44.184Z,2.43
2018-06-17T23:13:12.725Z,2.23
2018-06-17T23:15:41.353Z,2.20
2018-06-17T23:18:09.905Z,2.00
2018-06-17T23:20:38.490Z,2.13
2018-06-17T23:23:07.058Z,2.60
2018-06-17T23:25:35.637Z,3.50
2018-06-17T23:28:04.197Z,3.33
2018-06-17T23:30:32.475Z,2.47
2018-06-17T23:33:02.415Z,2.53
2018-06-17T23:35:31.593Z,2.70
2018-06-17T23:37:59.831Z,2.50
2018-06-17T23:40:28.404Z,2.50
2018-06-17T23:42:56.989Z,3.13
2018-06-17T23:45:25.621Z,2.50
2018-06-17T23:47:59.361Z,2.60
2018-06-17T23:50:33.388Z,2.83
2018-06-17T23:53:07.299Z,2.50
2018-06-17T23:55:41.079Z,2.23
2018-06-17T23:58:09.626Z,2.57
